createdAt,value
2023-04-26T05:24:30.753Z,70.18
2023-04-26T05:27:04.376Z,70.30
2023-04-26T05:29:36.714Z,70.14
2023-04-26T05:32:10.731Z,70.23
2023-04-26T05:34:44.021Z,70.12
2023-04-26T05:37:17.745Z,70.07
2023-04-26T05:39:51.217Z,70.10
2023-04-26T05:42:23.588Z,70.06
2023-04-26T05:45:00.363Z,70.14
2023-04-26T05:47:32.638Z,70.19
2023-04-26T05:50:05.334Z,69.96
2023-04-26T05:52:37.708Z,69.84
2023-04-26T05:55:11.460Z,69.89
2023-04-26T05:57:44.413Z,69.94
2023-04-26T06:00:20.399Z,70.04
2023-04-26T06:02:53.084Z,69.84
2023-04-26T06:05:26.242Z,69.80
2023-04-26T06:07:58.813Z,69.85
2023-04-26T06:10:31.901Z,69.50
2023-04-26T06:13:04.711Z,69.40
2023-04-26T06:15:48.246Z,69.47
2023-04-26T06:18:20.632Z,69.46
2023-04-26T06:20:53.548Z,69.48
2023-04-26T06:23:26.280Z,69.38
2023-04-26T06:25:59.264Z,69.27
2023-04-26T06:28:31.651Z,69.09
2023-04-26T06:31:07.442Z,69.41
2023-04-26T06:33:40.032Z,69.51
2023-04-26T06:36:15.758Z,69.45
2023-04-26T06:38:48.195Z,69.20
2023-04-26T06:41:22.277Z,68.68
2023-04-26T06:43:54.837Z,68.49
2023-04-26T06:46:27.624Z,68.83
2023-04-26T06:49:00.179Z,68.59
2023-04-26T06:51:34.732Z,68.63
2023-04-26T06:54:07.674Z,68.30
2023-04-26T06:56:40.100Z,68.00
2023-04-26T06:59:12.505Z,67.47
2023-04-26T07:01:44.901Z,67.31
2023-04-26T07:04:18.911Z,66.81
2023-04-26T07:06:51.817Z,66.67
2023-04-26T07:09:24.220Z,66.66
2023-04-26T07:11:56.686Z,66.36
2023-04-26T07:14:29.585Z,65.98
2023-04-26T07:17:01.978Z,65.80
2023-04-26T07:19:34.460Z,65.79
2023-04-26T07:22:06.880Z,65.20
2023-04-26T07:24:39.714Z,65.00
2023-04-26T07:27:12.255Z,65.00
2023-04-26T07:29:44.533Z,64.52
2023-04-26T07:32:17.296Z,64.12
2023-04-26T07:34:49.781Z,64.32
2023-04-26T07:37:22.211Z,64.41
2023-04-26T07:39:54.914Z,64.17
2023-04-26T07:42:27.366Z,63.97
2023-04-26T07:45:00.068Z,63.31
2023-04-26T07:47:32.427Z,63.40
2023-04-26T07:50:04.910Z,63.22
2023-04-26T07:52:37.818Z,62.83
2023-04-26T07:55:12.776Z,62.02
2023-04-26T07:57:46.244Z,61.82
2023-04-26T08:00:22.423Z,61.21
2023-04-26T08:02:55.202Z,61.15
2023-04-26T08:05:28.138Z,60.52
2023-04-26T08:08:01.830Z,60.56
2023-04-26T08:10:34.099Z,60.27
2023-04-26T08:13:06.789Z,60.39
2023-04-26T08:15:39.413Z,60.36
2023-04-26T08:18:11.837Z,59.51
2023-04-26T08:20:44.205Z,59.45
2023-04-26T08:23:16.520Z,58.07
2023-04-26T08:25:49.841Z,58.12
2023-04-26T08:28:22.123Z,58.10
2023-04-26T08:30:54.416Z,57.66
2023-04-26T08:33:26.983Z,57.39
2023-04-26T08:36:00.220Z,57.19
2023-04-26T08:38:33.406Z,57.16
2023-04-26T08:41:08.025Z,55.96
2023-04-26T08:43:41.762Z,55.95
2023-04-26T08:46:17.766Z,55.39
2023-04-26T08:49:01.346Z,55.77
2023-04-26T08:51:34.936Z,55.86
2023-04-26T08:54:09.215Z,54.72
2023-04-26T08:56:44.230Z,55.21
2023-04-26T08:59:17.151Z,55.15
2023-04-26T09:01:51.124Z,55.12
2023-04-26T09:04:24.477Z,54.80
2023-04-26T09:07:02.058Z,54.44
2023-04-26T09:09:42.755Z,54.12
2023-04-26T09:12:16.175Z,53.38
2023-04-26T09:14:49.002Z,52.86
2023-04-26T09:17:32.042Z,52.91
2023-04-26T09:20:18.938Z,52.39
2023-04-26T09:22:52.585Z,52.66
2023-04-26T09:25:31.566Z,52.80
2023-04-26T09:28:05.483Z,52.34
2023-04-26T09:30:41.769Z,52.25
2023-04-26T09:33:14.034Z,51.59
2023-04-26T09:35:47.012Z,51.65
2023-04-26T09:38:20.016Z,51.63
2023-04-26T09:40:53.072Z,51.40
2023-04-26T09:43:25.738Z,50.65
2023-04-26T09:46:00.258Z,50.64
2023-04-26T09:48:34.619Z,50.08
2023-04-26T09:51:13.630Z,50.07
2023-04-26T09:53:51.317Z,49.74
2023-04-26T09:56:23.718Z,50.00
2023-04-26T09:59:05.305Z,50.00
2023-04-26T10:01:38.784Z,50.05
2023-04-26T10:04:11.587Z,50.18
2023-04-26T10:06:43.983Z,49.76
2023-04-26T10:09:16.783Z,49.00
2023-04-26T10:11:49.993Z,48.92
2023-04-26T10:14:24.387Z,48.92
2023-04-26T10:16:58.163Z,49.03
2023-04-26T10:19:30.931Z,49.40
2023-04-26T10:22:08.404Z,49.57
2023-04-26T10:24:41.175Z,49.14
2023-04-26T10:27:13.681Z,48.97
2023-04-26T10:30:10.667Z,48.79
2023-04-26T10:33:16.875Z,48.68
2023-04-26T10:36:10.575Z,48.07
2023-04-26T10:39:06.105Z,48.25
2023-04-26T10:41:40.312Z,48.39
2023-04-26T10:44:45.690Z,48.47
2023-04-26T10:47:31.564Z,48.26
2023-04-26T10:50:06.553Z,48.35
2023-04-26T10:52:39.877Z,48.51
2023-04-26T10:55:12.353Z,48.46
2023-04-26T10:57:54.188Z,48.27
2023-04-26T11:00:33.722Z,48.10
2023-04-26T11:03:15.459Z,47.90
2023-04-26T11:05:58.299Z,48.06
2023-04-26T11:08:32.109Z,48.04
2023-04-26T11:11:12.203Z,48.05
2023-04-26T11:13:45.704Z,47.85
2023-04-26T11:16:19.477Z,47.98
2023-04-26T11:18:55.886Z,47.71
2023-04-26T11:21:29.175Z,47.85
2023-04-26T11:24:01.430Z,47.80
2023-04-26T11:26:37.153Z,47.85
2023-04-26T11:29:13.746Z,47.79
2023-04-26T11:31:52.072Z,47.48
2023-04-26T11:34:35.356Z,47.64
2023-04-26T11:37:08.773Z,47.71
2023-04-26T11:39:41.172Z,48.02
2023-04-26T11:42:14.734Z,47.78
2023-04-26T11:44:47.716Z,47.42
2023-04-26T11:47:21.247Z,47.03
2023-04-26T11:49:53.972Z,47.27
2023-04-26T11:52:27.614Z,47.30
2023-04-26T11:55:07.774Z,47.35
2023-04-26T11:57:40.124Z,47.05
2023-04-26T12:00:16.104Z,47.09
2023-04-26T12:02:49.569Z,47.06
2023-04-26T12:05:30.844Z,47.15
2023-04-26T12:08:03.733Z,46.59
2023-04-26T12:10:39.011Z,46.45
2023-04-26T12:13:16.724Z,46.34
2023-04-26T12:15:51.519Z,46.49
2023-04-26T12:18:30.895Z,46.28
2023-04-26T12:21:03.985Z,46.41
2023-04-26T12:23:42.226Z,46.11
2023-04-26T12:26:15.331Z,46.20
2023-04-26T12:28:48.100Z,46.30
2023-04-26T12:31:20.648Z,46.31
2023-04-26T12:33:53.038Z,46.35
2023-04-26T12:36:25.371Z,46.10
2023-04-26T12:38:58.180Z,46.18
2023-04-26T12:41:30.573Z,46.23
2023-04-26T12:44:03.336Z,46.02
2023-04-26T12:46:35.436Z,46.00
2023-04-26T12:49:08.058Z,45.84
2023-04-26T12:51:40.836Z,46.24
2023-04-26T12:54:13.245Z,46.16
2023-04-26T12:56:46.252Z,46.37
2023-04-26T12:59:18.738Z,46.43
2023-04-26T13:01:51.123Z,46.49
2023-04-26T13:04:23.775Z,46.59
2023-04-26T13:06:56.736Z,46.62
2023-04-26T13:09:29.132Z,46.71
2023-04-26T13:12:01.538Z,46.89
2023-04-26T13:14:34.030Z,46.98
2023-04-26T13:17:08.640Z,46.92
2023-04-26T13:19:41.141Z,47.03
2023-04-26T13:22:15.157Z,46.88
2023-04-26T13:24:47.907Z,47.03
2023-04-26T13:27:20.248Z,47.12
2023-04-26T13:29:53.156Z,47.19
2023-04-26T13:32:25.618Z,47.35
2023-04-26T13:34:58.386Z,47.20
2023-04-26T13:37:31.917Z,47.10
2023-04-26T13:40:05.467Z,47.22
2023-04-26T13:42:37.903Z,47.29
2023-04-26T13:45:17.018Z,47.51
2023-04-26T13:47:50.989Z,47.62
2023-04-26T13:50:23.328Z,47.87
2023-04-26T13:52:55.682Z,47.99
2023-04-26T13:55:29.906Z,48.25
2023-04-26T13:58:02.737Z,48.39
2023-04-26T14:00:35.075Z,48.48
2023-04-26T14:03:07.899Z,48.61
2023-04-26T14:05:40.391Z,48.82
2023-04-26T14:08:12.875Z,49.00
2023-04-26T14:10:45.622Z,49.06
2023-04-26T14:13:18.617Z,49.13
2023-04-26T14:15:51.406Z,49.33
2023-04-26T14:18:23.915Z,49.36
2023-04-26T14:20:56.205Z,49.54
2023-04-26T14:23:28.772Z,49.65
2023-04-26T14:26:01.010Z,49.77
2023-04-26T14:28:33.494Z,49.94
2023-04-26T14:31:06.098Z,50.12
2023-04-26T14:33:38.609Z,50.35
2023-04-26T14:36:11.557Z,50.43
2023-04-26T14:38:46.693Z,50.63
2023-04-26T14:41:20.471Z,50.69
2023-04-26T14:43:52.839Z,50.90
2023-04-26T14:46:25.173Z,51.01
2023-04-26T14:48:57.430Z,51.22
2023-04-26T14:51:29.880Z,51.35
2023-04-26T14:54:02.456Z,51.45
2023-04-26T14:56:37.371Z,51.60
2023-04-26T14:59:09.755Z,51.52
2023-04-26T15:01:42.068Z,51.61
2023-04-26T15:04:14.670Z,51.54
2023-04-26T15:06:47.355Z,51.55
2023-04-26T15:09:19.665Z,51.64
2023-04-26T15:11:51.990Z,51.63
2023-04-26T15:14:24.461Z,51.78
2023-04-26T15:16:57.281Z,51.87
2023-04-26T15:19:29.738Z,51.58
2023-04-26T15:22:02.181Z,51.40
2023-04-26T15:24:38.739Z,51.37
2023-04-26T15:27:11.108Z,51.30
2023-04-26T15:29:43.632Z,51.28
2023-04-26T15:32:15.793Z,51.31
2023-04-26T15:34:48.414Z,51.27
2023-04-26T15:37:20.943Z,51.25
2023-04-26T15:39:53.458Z,51.27
2023-04-26T15:42:25.864Z,51.29
2023-04-26T15:44:58.251Z,51.38
2023-04-26T15:47:30.637Z,51.36
2023-04-26T15:50:05.913Z,51.50
2023-04-26T15:52:39.689Z,51.41
2023-04-26T15:55:12.605Z,51.49
2023-04-26T15:57:45.754Z,51.53
2023-04-26T16:00:19.877Z,51.58
2023-04-26T16:02:52.526Z,51.60
2023-04-26T16:05:25.000Z,51.79
2023-04-26T16:07:57.448Z,51.85
2023-04-26T16:10:30.370Z,52.00
2023-04-26T16:13:02.768Z,52.09
2023-04-26T16:15:35.143Z,52.21
2023-04-26T16:18:07.715Z,52.35
2023-04-26T16:20:40.144Z,52.49
2023-04-26T16:23:12.514Z,52.70
2023-04-26T16:25:45.402Z,52.94
2023-04-26T16:28:18.125Z,53.11
2023-04-26T16:30:50.590Z,53.28
2023-04-26T16:33:23.635Z,53.52
2023-04-26T16:35:56.963Z,53.62
2023-04-26T16:38:29.280Z,53.81
2023-04-26T16:41:02.648Z,53.91
2023-04-26T16:43:35.018Z,54.01
2023-04-26T16:46:09.296Z,54.09
2023-04-26T16:48:41.911Z,54.33
2023-04-26T16:51:14.336Z,54.44
2023-04-26T16:53:46.666Z,54.43
2023-04-26T16:56:19.063Z,54.43
2023-04-26T16:58:51.761Z,54.43
2023-04-26T17:01:24.183Z,54.53
2023-04-26T17:03:57.364Z,54.73
2023-04-26T17:06:30.023Z,54.80
2023-04-26T17:09:02.480Z,54.82
2023-04-26T17:11:37.440Z,55.00
2023-04-26T17:14:09.797Z,55.17
2023-04-26T17:16:42.416Z,55.22
2023-04-26T17:19:14.816Z,55.31
2023-04-26T17:21:47.241Z,55.34
2023-04-26T17:24:19.631Z,55.27
2023-04-26T17:26:51.974Z,55.29
2023-04-26T17:29:24.307Z,55.54
2023-04-26T17:31:56.666Z,55.64
2023-04-26T17:34:29.062Z,55.63
2023-04-26T17:37:01.531Z,55.76
2023-04-26T17:39:35.281Z,55.82
2023-04-26T17:42:07.760Z,55.96
2023-04-26T17:44:40.094Z,56.05
2023-04-26T17:47:12.551Z,55.96
2023-04-26T17:49:44.917Z,56.05
2023-04-26T17:52:18.519Z,56.04
2023-04-26T17:54:50.954Z,56.03
2023-04-26T17:57:24.254Z,55.99
2023-04-26T17:59:57.288Z,56.08
2023-04-26T18:02:29.681Z,56.11
2023-04-26T18:05:02.262Z,56.26
2023-04-26T18:07:34.851Z,56.16
2023-04-26T18:10:08.801Z,56.28
2023-04-26T18:12:41.116Z,56.41
2023-04-26T18:15:14.039Z,56.29
2023-04-26T18:17:46.596Z,56.52
2023-04-26T18:20:19.022Z,56.45
2023-04-26T18:22:51.688Z,56.44
2023-04-26T18:25:24.110Z,56.61
2023-04-26T18:27:56.481Z,56.78
2023-04-26T18:30:29.136Z,56.70
2023-04-26T18:33:04.362Z,56.63
2023-04-26T18:35:36.766Z,56.74
2023-04-26T18:38:09.159Z,56.82
2023-04-26T18:40:46.242Z,56.87
2023-04-26T18:43:18.948Z,56.75
2023-04-26T18:45:52.770Z,56.76
2023-04-26T18:48:25.152Z,56.92
2023-04-26T18:50:58.102Z,56.74
2023-04-26T18:53:30.787Z,56.88
2023-04-26T18:56:03.255Z,56.92
2023-04-26T18:58:37.167Z,56.72
2023-04-26T19:01:09.496Z,56.82
2023-04-26T19:03:44.465Z,57.02
2023-04-26T19:06:17.193Z,57.01
2023-04-26T19:08:49.503Z,57.05
2023-04-26T19:11:23.194Z,57.06
2023-04-26T19:13:56.787Z,57.33
2023-04-26T19:16:29.300Z,57.23
2023-04-26T19:19:02.141Z,57.18
2023-04-26T19:21:35.274Z,57.41
2023-04-26T19:24:08.746Z,57.48
2023-04-26T19:26:43.738Z,57.43
2023-04-26T19:29:16.069Z,57.36
2023-04-26T19:31:48.324Z,57.40
2023-04-26T19:34:21.813Z,57.54
2023-04-26T19:36:54.215Z,57.63
2023-04-26T19:39:26.545Z,57.78
2023-04-26T19:42:01.338Z,57.82
2023-04-26T19:44:33.596Z,57.74
2023-04-26T19:47:06.912Z,57.87
2023-04-26T19:49:39.719Z,57.93
2023-04-26T19:52:13.591Z,57.97
2023-04-26T19:54:45.835Z,57.94
2023-04-26T19:57:18.133Z,57.98
2023-04-26T19:59:50.450Z,58.11
2023-04-26T20:02:22.758Z,57.95
2023-04-26T20:04:55.193Z,58.10
2023-04-26T20:07:27.689Z,58.26
2023-04-26T20:10:00.051Z,58.08
2023-04-26T20:12:32.297Z,58.23
2023-04-26T20:15:04.712Z,58.14
2023-04-26T20:17:37.681Z,58.18
2023-04-26T20:20:12.435Z,58.30
2023-04-26T20:22:44.789Z,58.20
2023-04-26T20:25:19.957Z,58.23
2023-04-26T20:27:52.650Z,58.37
2023-04-26T20:30:25.801Z,58.30
2023-04-26T20:32:58.240Z,58.19
2023-04-26T20:35:30.746Z,58.40
2023-04-26T20:38:03.224Z,58.28
2023-04-26T20:40:35.602Z,58.43
2023-04-26T20:43:08.102Z,58.37
2023-04-26T20:45:41.408Z,58.13
2023-04-26T20:48:14.314Z,58.33
2023-04-26T20:50:46.492Z,58.44
2023-04-26T20:53:18.859Z,58.33
2023-04-26T20:55:52.560Z,58.37
2023-04-26T20:58:25.079Z,58.29
2023-04-26T21:00:59.445Z,58.18
2023-04-26T21:03:32.668Z,58.25
2023-04-26T21:06:05.214Z,58.18
2023-04-26T21:08:37.464Z,58.30
2023-04-26T21:11:09.879Z,58.04
2023-04-26T21:13:42.437Z,58.14
2023-04-26T21:16:14.757Z,57.88
2023-04-26T21:18:47.533Z,57.88
2023-04-26T21:21:20.270Z,57.92
2023-04-26T21:23:52.623Z,57.84
2023-04-26T21:26:24.926Z,57.89
2023-04-26T21:28:57.104Z,58.10
2023-04-26T21:31:29.532Z,58.06
2023-04-26T21:34:02.003Z,57.93
2023-04-26T21:36:34.361Z,57.89
2023-04-26T21:39:06.853Z,57.87
2023-04-26T21:41:39.333Z,57.83
2023-04-26T21:44:11.717Z,57.94
2023-04-26T21:46:44.113Z,57.78
2023-04-26T21:49:16.475Z,57.81
2023-04-26T21:51:48.805Z,57.81
2023-04-26T21:54:21.091Z,57.78
2023-04-26T21:56:53.361Z,57.83
2023-04-26T21:59:25.796Z,57.83
2023-04-26T22:01:58.086Z,57.83
2023-04-26T22:04:30.523Z,57.88
2023-04-26T22:07:03.195Z,57.84
2023-04-26T22:09:35.811Z,57.77
2023-04-26T22:12:08.585Z,57.80
2023-04-26T22:14:40.942Z,57.82
2023-04-26T22:17:13.137Z,57.80
2023-04-26T22:19:45.609Z,57.87
2023-04-26T22:22:18.458Z,57.86
2023-04-26T22:24:52.094Z,57.86
2023-04-26T22:27:24.990Z,57.94
2023-04-26T22:29:57.482Z,57.86
2023-04-26T22:32:29.863Z,57.88
2023-04-26T22:35:02.139Z,57.89
2023-04-26T22:37:34.548Z,57.84
2023-04-26T22:40:10.404Z,57.91
2023-04-26T22:42:41.043Z,57.89
2023-04-26T22:45:15.167Z,57.95
2023-04-26T22:47:47.715Z,57.91
2023-04-26T22:50:20.214Z,57.80
2023-04-26T22:52:52.553Z,57.80
2023-04-26T22:55:25.118Z,57.87
2023-04-26T22:57:57.340Z,57.92
2023-04-26T23:00:29.747Z,57.91
2023-04-26T23:03:02.200Z,57.85
2023-04-26T23:05:34.670Z,57.86
2023-04-26T23:08:07.422Z,57.74
2023-04-26T23:10:41.541Z,57.71
2023-04-26T23:13:14.624Z,57.62
2023-04-26T23:15:47.021Z,57.58
2023-04-26T23:18:19.782Z,57.53
2023-04-26T23:20:52.700Z,57.44
2023-04-26T23:23:25.091Z,57.36
2023-04-26T23:25:57.417Z,57.46
2023-04-26T23:28:29.784Z,57.41
2023-04-26T23:31:02.288Z,57.37
2023-04-26T23:33:34.657Z,57.31
2023-04-26T23:36:08.151Z,57.40
2023-04-26T23:38:40.436Z,57.48
2023-04-26T23:41:12.785Z,57.40
2023-04-26T23:43:45.072Z,57.16
2023-04-26T23:46:17.525Z,57.16
2023-04-26T23:48:49.952Z,57.20
2023-04-26T23:51:22.255Z,57.07
2023-04-26T23:53:54.778Z,56.92
2023-04-26T23:56:27.210Z,57.04
2023-04-26T23:58:59.578Z,56.91
